Temp: 3.4°C   Baro: 1036.8mb
  Wind: 2.0mph   Dir: SSW (211°)
  Rain: 0.0mm (0.0mm/hr)
  Solar: 21W/m2  Hum: 85%

Historic data

Bath Spa Weather Station Historical Data
Daily Summary for November 25, 2021 Units:  English    Metric   Both
Daily Weekly Monthly Yearly Custom
  High: Low: Average:
Temperature: 45.5 °F 34.4 °F 40.2 °F
Dew Point: 41.5 °F 31.8 °F 36.1 °F
Humidity: 90% 70.6% 82%
Wind Speed: 10mph 0mph 2.5mph
Wind Gust: 15mph - -
Wind- - SSW
Pressure: 30.14 in 29.93 in -
Precipitation: 0.00 in    
Historical Graphs
 
 
Tabular Data for November 25, 2021
Time Temperature Dew Point Pressure Wind Wind Speed Wind Gust Humidity Rainfall Rate (Hourly) solar
00:09 43.3 °F 41.5 °F 30.04 in North 4 mph 9 mph 90% 0.00 in 0 W/m2
00:19 43.3 °F 41.5 °F 30.04 in North 4.8 mph 11 mph 90% 0.00 in 0 W/m2
00:24 43.3 °F 41.5 °F 30.04 in North 5.4 mph 13 mph 90% 0.00 in 0 W/m2
00:29 43.3 °F 41.3 °F 30.04 in North 3.5 mph 10 mph 89.4% 0.00 in 0 W/m2
00:34 43.2 °F 41 °F 30.04 in North 3.8 mph 9 mph 89% 0.00 in 0 W/m2
00:39 43.2 °F 41 °F 30.04 in North 5.8 mph 11 mph 89% 0.00 in 0 W/m2
00:44 43.2 °F 40.9 °F 30.04 in North 5.4 mph 11 mph 88.6% 0.00 in 0 W/m2
00:49 43.2 °F 40.8 °F 30.04 in North 5.4 mph 9 mph 88% 0.00 in 0 W/m2
00:54 43.2 °F 40.8 °F 30.04 in North 3.1 mph 9 mph 88% 0.00 in 0 W/m2
00:59 43 °F 40.6 °F 30.04 in North 2.2 mph 6 mph 88% 0.00 in 0 W/m2
01:04 43 °F 40.6 °F 30.03 in North 2.1 mph 7 mph 88% 0.00 in 0 W/m2
01:09 43 °F 40.6 °F 30.03 in North 4 mph 9 mph 88% 0.00 in 0 W/m2
01:14 43 °F 40.4 °F 30.04 in NNE 5.6 mph 9 mph 87.2% 0.00 in 0 W/m2
01:19 43 °F 40.3 °F 30.03 in NNE 5.3 mph 10 mph 87% 0.00 in 0 W/m2
01:24 43 °F 40.1 °F 30.04 in NNE 4.4 mph 10 mph 86.4% 0.00 in 0 W/m2
01:29 42.9 °F 39.8 °F 30.04 in NNE 5 mph 10 mph 86% 0.00 in 0 W/m2
01:32 42.9 °F 39.8 °F 30.04 in North 4.6 mph 10 mph 86% 0.00 in 0 W/m2
01:39 42.8 °F 39.7 °F 30.03 in North 4.8 mph 10 mph 85.8% 0.00 in 0 W/m2
01:44 42.8 °F 39.6 °F 30.04 in North 4.2 mph 11 mph 85.3% 0.00 in 0 W/m2
01:49 42.8 °F 39.6 °F 30.04 in North 6.4 mph 13 mph 85% 0.00 in 0 W/m2
01:54 42.8 °F 39.6 °F 30.04 in North 4.8 mph 13 mph 85% 0.00 in 0 W/m2
01:59 42.6 °F 39.4 °F 30.04 in NNE 4.6 mph 10 mph 85% 0.00 in 0 W/m2
02:04 42.5 °F 39.3 °F 30.04 in North 5.7 mph 12 mph 85% 0.00 in 0 W/m2
02:09 42.4 °F 39.2 °F 30.04 in North 4.1 mph 12 mph 85% 0.00 in 0 W/m2
02:14 42.4 °F 39.2 °F 30.04 in North 5.4 mph 11 mph 85% 0.00 in 0 W/m2
02:19 42.4 °F 39.2 °F 30.05 in North 5.3 mph 9 mph 85% 0.00 in 0 W/m2
02:24 42.4 °F 39.2 °F 30.05 in North 6.4 mph 12 mph 85% 0.00 in 0 W/m2
02:29 42.4 °F 39.2 °F 30.05 in North 5 mph 12 mph 85% 0.00 in 0 W/m2
02:34 42.5 °F 39.3 °F 30.05 in North 5.5 mph 11 mph 85% 0.00 in 0 W/m2
02:39 42.6 °F 39.1 °F 30.05 in NNW 4.4 mph 12 mph 84.2% 0.00 in 0 W/m2
02:44 42.6 °F 39 °F 30.05 in North 4 mph 12 mph 84% 0.00 in 0 W/m2
02:49 42.6 °F 39 °F 30.05 in North 3.7 mph 10 mph 84% 0.00 in 0 W/m2
02:54 42.4 °F 38.8 °F 30.05 in North 4.4 mph 6 mph 84% 0.00 in 0 W/m2
02:59 42.4 °F 38.8 °F 30.05 in North 3.7 mph 8 mph 84% 0.00 in 0 W/m2
03:04 42.4 °F 38.8 °F 30.05 in North 2.4 mph 6 mph 84% 0.00 in 0 W/m2
03:09 42.4 °F 38.8 °F 30.05 in North 2.7 mph 7 mph 84% 0.00 in 0 W/m2
03:14 42.4 °F 38.8 °F 30.05 in North 2.5 mph 7 mph 84% 0.00 in 0 W/m2
03:19 42.4 °F 38.8 °F 30.05 in North 4 mph 9 mph 84% 0.00 in 0 W/m2
03:24 42.4 °F 38.8 °F 30.05 in NNW 3.6 mph 9 mph 84% 0.00 in 0 W/m2
03:29 42.4 °F 38.5 °F 30.05 in NNW 2.5 mph 5 mph 83% 0.00 in 0 W/m2
03:34 42.4 °F 38.5 °F 30.05 in NNW 4 mph 9 mph 83% 0.00 in 0 W/m2
03:39 42.4 °F 38.5 °F 30.05 in NNW 3.2 mph 7 mph 83% 0.00 in 0 W/m2
03:44 42.4 °F 38.5 °F 30.05 in NNW 2.7 mph 7 mph 83% 0.00 in 0 W/m2
03:49 42.4 °F 38.5 °F 30.05 in NNW 3.1 mph 5 mph 83% 0.00 in 0 W/m2
03:54 42.4 °F 38.5 °F 30.05 in NNW 3.1 mph 6 mph 83% 0.00 in 0 W/m2
03:59 42.4 °F 38.5 °F 30.05 in NNW 3.7 mph 9 mph 83% 0.00 in 0 W/m2
04:04 42.4 °F 38.5 °F 30.05 in NNW 6 mph 10 mph 83% 0.00 in 0 W/m2
04:09 42.3 °F 38.4 °F 30.05 in NNW 3.4 mph 10 mph 83% 0.00 in 0 W/m2
04:14 42.3 °F 38.3 °F 30.05 in NNW 2.9 mph 7 mph 83% 0.00 in 0 W/m2
04:19 42.3 °F 38.3 °F 30.06 in NNW 3.3 mph 8 mph 83% 0.00 in 0 W/m2
04:24 42.1 °F 38.1 °F 30.06 in NNW 2.9 mph 7 mph 83% 0.00 in 0 W/m2
04:29 41.9 °F 38.1 °F 30.06 in NNW 4.2 mph 8 mph 83.4% 0.00 in 0 W/m2
04:34 41.8 °F 38.1 °F 30.06 in NNW 3.6 mph 9 mph 83.8% 0.00 in 0 W/m2
04:39 41.7 °F 38.1 °F 30.06 in NNW 4.5 mph 7 mph 84% 0.00 in 0 W/m2
04:44 41.5 °F 37.9 °F 30.06 in NNW 4.9 mph 8 mph 84% 0.00 in 0 W/m2
04:49 41.4 °F 37.8 °F 30.06 in NNW 3 mph 6 mph 84% 0.00 in 0 W/m2
04:54 41.4 °F 37.8 °F 30.06 in NNW 4.1 mph 7 mph 84% 0.00 in 0 W/m2
04:59 41.2 °F 37.6 °F 30.06 in NNW 4.4 mph 8 mph 84% 0.00 in 0 W/m2
05:04 41.1 °F 37.5 °F 30.06 in North 4 mph 9 mph 84% 0.00 in 0 W/m2
05:09 41 °F 37.4 °F 30.06 in North 5.8 mph 10 mph 84% 0.00 in 0 W/m2
05:14 40.9 °F 37.3 °F 30.06 in North 4.1 mph 8 mph 84% 0.00 in 0 W/m2
05:19 40.8 °F 37.2 °F 30.06 in North 4 mph 8 mph 84% 0.00 in 0 W/m2
05:24 40.5 °F 36.9 °F 30.07 in North 3.6 mph 8 mph 84% 0.00 in 0 W/m2
05:29 40.5 °F 36.9 °F 30.06 in North 2.4 mph 7 mph 84% 0.00 in 0 W/m2
05:34 40.5 °F 36.9 °F 30.06 in North 2.4 mph 8 mph 84% 0.00 in 0 W/m2
05:39 40.2 °F 36.9 °F 30.06 in NNW 1.7 mph 10 mph 85% 0.00 in 0 W/m2
05:44 39.9 °F 36.7 °F 30.06 in NNW 2.6 mph 7 mph 85% 0.00 in 0 W/m2
05:49 39.9 °F 36.7 °F 30.06 in NNW 2 mph 5 mph 85% 0.00 in 0 W/m2
05:54 39.7 °F 36.5 °F 30.06 in NNW 1.6 mph 6 mph 85% 0.00 in 0 W/m2
05:59 39.6 °F 36.3 °F 30.07 in NNW 2 mph 4 mph 85% 0.00 in 0 W/m2
06:04 39.5 °F 36.2 °F 30.07 in NNW 2.2 mph 4 mph 85% 0.00 in 0 W/m2
06:09 39.4 °F 36.3 °F 30.07 in NNW 2.4 mph 6 mph 85.6% 0.00 in 0 W/m2
06:14 39.4 °F 36.5 °F 30.07 in NNW 1.2 mph 5 mph 86% 0.00 in 0 W/m2
06:19 39.2 °F 36.3 °F 30.07 in NNW 0.6 mph 4 mph 86% 0.00 in 0 W/m2
06:24 39 °F 36.1 °F 30.08 in NNW 0.2 mph 4 mph 86% 0.00 in 0 W/m2
06:29 39 °F 36.1 °F 30.08 in NNW 1.2 mph 3 mph 86% 0.00 in 0 W/m2
06:34 38.8 °F 36 °F 30.08 in NNW 1.8 mph 4 mph 86% 0.00 in 0 W/m2
06:39 38.8 °F 36 °F 30.08 in NNW 1.2 mph 3 mph 86% 0.00 in 0 W/m2
06:44 38.7 °F 35.8 °F 30.08 in NNW 0.4 mph 5 mph 86% 0.00 in 0 W/m2
06:49 38.7 °F 35.8 °F 30.08 in NNW 1.6 mph 6 mph 86% 0.00 in 0 W/m2
06:54 38.7 °F 35.8 °F 30.09 in NNW 1 mph 5 mph 86.2% 0.00 in 0 W/m2
06:59 38.7 °F 36 °F 30.09 in NNW 0.5 mph 4 mph 87% 0.00 in 0 W/m2
07:04 38.7 °F 36 °F 30.09 in Calm   1 mph 87% 0.00 in 0 W/m2
07:09 38.6 °F 35.9 °F 30.09 in North 2.8 mph 9 mph 87% 0.00 in 0 W/m2
07:14 38.7 °F 36 °F 30.09 in North 2 mph 9 mph 87% 0.00 in 0 W/m2
07:19 38.8 °F 36.1 °F 30.09 in North 4.4 mph 10 mph 87% 0.00 in 0 W/m2
07:24 38.9 °F 36.2 °F 30.09 in NNE 5.8 mph 11 mph 87% 0.00 in 0 W/m2
07:29 38.8 °F 36.1 °F 30.09 in NNE 6.6 mph 10 mph 87% 0.00 in 0 W/m2
07:34 38.7 °F 36 °F 30.09 in North 4 mph 9 mph 87% 0.00 in 0 W/m2
07:39 38.7 °F 35.9 °F 30.09 in NNE 6.2 mph 10 mph 86.4% 0.00 in 0 W/m2
07:44 38.7 °F 36 °F 30.10 in NNE 5.8 mph 13 mph 87% 0.00 in 0 W/m2
07:49 38.7 °F 35.9 °F 30.10 in NNE 4.5 mph 13 mph 86.4% 0.00 in 5 W/m2
07:54 38.8 °F 36 °F 30.10 in North 4.3 mph 12 mph 86% 0.00 in 7 W/m2
07:59 38.7 °F 35.8 °F 30.11 in North 5.1 mph 9 mph 86% 0.00 in 9 W/m2
08:04 38.7 °F 35.8 °F 30.11 in North 4.4 mph 10 mph 86% 0.00 in 11 W/m2
08:09 38.7 °F 35.8 °F 30.11 in North 4.8 mph 8 mph 86% 0.00 in 12 W/m2
08:13 38.7 °F 35.8 °F 30.11 in North 4.5 mph 6 mph 86% 0.00 in 14 W/m2
08:19 38.8 °F 36 °F 30.11 in North 4.1 mph 7 mph 86% 0.00 in 16 W/m2
08:24 39 °F 36 °F 30.11 in North 3.2 mph 7 mph 85.8% 0.00 in 18 W/m2
08:29 39.5 °F 36.4 °F 30.12 in North 1.6 mph 5 mph 85.6% 0.00 in 19 W/m2
08:34 39.5 °F 36.2 °F 30.12 in North 1.8 mph 5 mph 85% 0.00 in 19 W/m2
08:39 39.7 °F 36.5 °F 30.12 in North 2.4 mph 7 mph 85% 0.00 in 21 W/m2
08:44 39.6 °F 36 °F 30.12 in North 2.8 mph 8 mph 84% 0.00 in 23 W/m2
08:49 39.6 °F 36 °F 30.12 in North 0.8 mph 5 mph 84% 0.00 in 23 W/m2
08:54 39.6 °F 36 °F 30.12 in North 3.3 mph 9 mph 84% 0.00 in 25 W/m2
08:59 39.4 °F 35.8 °F 30.12 in North 3.5 mph 9 mph 84% 0.00 in 25 W/m2
09:04 39.5 °F 35.9 °F 30.12 in North 1.6 mph 6 mph 84% 0.00 in 26 W/m2
09:09 39.6 °F 36 °F 30.13 in North 4.1 mph 8 mph 84% 0.00 in 26 W/m2
09:14 39.6 °F 36 °F 30.12 in NNE 5.3 mph 10 mph 83.8% 0.00 in 30 W/m2
09:19 39.9 °F 36.2 °F 30.12 in NNE 3.3 mph 7 mph 83.4% 0.00 in 33 W/m2
09:24 40.3 °F 36.4 °F 30.12 in NNE 3.6 mph 7 mph 82.8% 0.00 in 40 W/m2
09:29 40.4 °F 36.2 °F 30.12 in NNE 1.2 mph 7 mph 82.2% 0.00 in 44 W/m2
09:34 40.8 °F 36.7 °F 30.12 in NNE 2.3 mph 5 mph 82.2% 0.00 in 53 W/m2
09:39 40.9 °F 36.7 °F 30.12 in NNE 2.4 mph 5 mph 81.6% 0.00 in 62 W/m2
09:44 41.5 °F 37 °F 30.12 in NNE 1.5 mph 6 mph 81% 0.00 in 72 W/m2
09:49 41.5 °F 36.8 °F 30.12 in NNE 1.6 mph 6 mph 80.4% 0.00 in 83 W/m2
09:54 41.4 °F 36.5 °F 30.12 in NNE 2 mph 7 mph 80% 0.00 in 93 W/m2
09:59 42 °F 37.1 °F 30.12 in NNE 2.1 mph 7 mph 80% 0.00 in 105 W/m2
10:04 41.9 °F 36.7 °F 30.13 in NNE 2.8 mph 6 mph 79% 0.00 in 114 W/m2
10:09 41.9 °F 36.8 °F 30.13 in NNE 2.7 mph 8 mph 79.2% 0.00 in 123 W/m2
10:14 41.7 °F 36.5 °F 30.13 in North 4.2 mph 8 mph 78.8% 0.00 in 132 W/m2
10:19 41.7 °F 36.6 °F 30.14 in North 2.1 mph 5 mph 79.2% 0.00 in 141 W/m2
10:24 41.9 °F 36.7 °F 30.14 in North 6.2 mph 10 mph 78.8% 0.00 in 149 W/m2
10:29 41.6 °F 36.5 °F 30.14 in North 4 mph 9 mph 79.2% 0.00 in 156 W/m2
10:34 41.7 °F 36.8 °F 30.14 in North 4.4 mph 9 mph 79.8% 0.00 in 163 W/m2
10:39 42 °F 36.8 °F 30.14 in NNW 5.7 mph 10 mph 79% 0.00 in 172 W/m2
10:44 41.9 °F 36.7 °F 30.14 in NNW 4.8 mph 9 mph 79% 0.00 in 178 W/m2
10:49 42 °F 36.8 °F 30.14 in NNW 6.8 mph 13 mph 78.8% 0.00 in 183 W/m2
10:54 42.3 °F 36.8 °F 30.14 in North 6 mph 11 mph 78.4% 0.00 in 190 W/m2
10:59 42.4 °F 36.9 °F 30.14 in North 6.2 mph 13 mph 78% 0.00 in 197 W/m2
11:04 42.2 °F 36.4 °F 30.14 in North 5.8 mph 13 mph 77% 0.00 in 202 W/m2
11:09 42.3 °F 36.7 °F 30.14 in NNW 5.1 mph 13 mph 77.6% 0.00 in 207 W/m2
11:14 42.4 °F 36.7 °F 30.13 in North 6.4 mph 13 mph 77.2% 0.00 in 209 W/m2
11:19 42.5 °F 36.8 °F 30.13 in North 5.4 mph 10 mph 77% 0.00 in 213 W/m2
11:24 42.8 °F 37 °F 30.13 in North 5.2 mph 11 mph 77% 0.00 in 218 W/m2
11:29 42.7 °F 36.9 °F 30.13 in NNW 7.1 mph 12 mph 76.8% 0.00 in 221 W/m2
11:34 43.1 °F 37 °F 30.13 in NNW 5 mph 9 mph 76.2% 0.00 in 223 W/m2
11:39 43.2 °F 37 °F 30.13 in North 5.3 mph 15 mph 75.6% 0.00 in 229 W/m2
11:44 43.1 °F 36.7 °F 30.13 in North 6 mph 14 mph 75.2% 0.00 in 230 W/m2
11:49 43.1 °F 36.8 °F 30.13 in NNE 5.3 mph 14 mph 75.6% 0.00 in 234 W/m2
11:54 44 °F 37.6 °F 30.13 in NE 3.2 mph 13 mph 75.6% 0.00 in 232 W/m2
11:58 44.5 °F 37.6 °F 30.13 in NNE 5 mph 11 mph 74% 0.00 in 236 W/m2
12:04 43.8 °F 37.2 °F 30.13 in NW 2.4 mph 9 mph 74.8% 0.00 in 236 W/m2
12:09 44.5 °F 37.8 °F 30.12 in North 4.4 mph 14 mph 74.4% 0.00 in 237 W/m2
12:14 43.5 °F 36.8 °F 30.12 in NNE 7.4 mph 13 mph 74.2% 0.00 in 241 W/m2
12:19 43.7 °F 37.2 °F 30.12 in NNE 2.4 mph 8 mph 75% 0.00 in 237 W/m2
12:24 44.2 °F 37.5 °F 30.11 in NNE 1.4 mph 6 mph 74.4% 0.00 in 239 W/m2
12:29 44.6 °F 37.6 °F 30.12 in NNE 1.8 mph 11 mph 73.4% 0.00 in 237 W/m2
12:34 45.2 °F 38.1 °F 30.12 in NE 2.8 mph 9 mph 73.4% 0.00 in 239 W/m2
12:39 45.5 °F 38 °F 30.11 in NNE 4.2 mph 13 mph 72.2% 0.00 in 237 W/m2
12:44 44.8 °F 37.2 °F 30.11 in NNE 3 mph 13 mph 72.2% 0.00 in 236 W/m2
12:49 44.8 °F 37.6 °F 30.11 in NNW 2.4 mph 9 mph 73% 0.00 in 234 W/m2
12:54 44.5 °F 37.3 °F 30.11 in NNE 3.6 mph 10 mph 73% 0.00 in 230 W/m2
12:59 44.8 °F 37.3 °F 30.12 in North 5.7 mph 9 mph 72.4% 0.00 in 227 W/m2
13:04 44.8 °F 37.2 °F 30.12 in North 4 mph 10 mph 72% 0.00 in 227 W/m2
13:09 45 °F 37.4 °F 30.12 in North 2.7 mph 8 mph 72% 0.00 in 223 W/m2
13:14 44.9 °F 37.1 °F 30.11 in North 7.1 mph 11 mph 71.2% 0.00 in 220 W/m2
13:19 44.8 °F 36.9 °F 30.11 in North 7.4 mph 13 mph 71% 0.00 in 218 W/m2
13:24 44.4 °F 36.5 °F 30.11 in NNE 10 mph 14 mph 71% 0.00 in 213 W/m2
13:29 44.2 °F 36.3 °F 30.11 in NNW 6.2 mph 13 mph 71% 0.00 in 211 W/m2
13:34 44.2 °F 36.2 °F 30.11 in North 9.4 mph 14 mph 70.8% 0.00 in 209 W/m2
13:39 44.3 °F 36.4 °F 30.11 in North 6.4 mph 11 mph 70.8% 0.00 in 207 W/m2
13:44 44.7 °F 36.7 °F 30.11 in North 3 mph 11 mph 70.6% 0.00 in 200 W/m2
13:49 44.6 °F 36.6 °F 30.11 in North 6.2 mph 11 mph 70.8% 0.00 in 204 W/m2
13:54 44.6 °F 36.7 °F 30.11 in NNW 5.2 mph 9 mph 71% 0.00 in 202 W/m2
13:59 44.6 °F 36.7 °F 30.11 in North 5.2 mph 11 mph 71% 0.00 in 178 W/m2
14:04 44.4 °F 36.3 °F 30.10 in North 2.1 mph 11 mph 70.6% 0.00 in 165 W/m2
14:09 44.5 °F 36.6 °F 30.10 in NNW 5.3 mph 9 mph 71% 0.00 in 149 W/m2
14:14 44.2 °F 36.3 °F 30.10 in North 5.5 mph 10 mph 71% 0.00 in 130 W/m2
14:19 44.1 °F 36.1 °F 30.10 in North 4.4 mph 11 mph 71% 0.00 in 132 W/m2
14:24 44.2 °F 36.7 °F 30.10 in NNE 4.4 mph 11 mph 72% 0.00 in 113 W/m2
14:29 44 °F 36.3 °F 30.10 in NNE 3.3 mph 11 mph 71.6% 0.00 in 107 W/m2
14:34 43.9 °F 36.3 °F 30.10 in North 3.9 mph 9 mph 72% 0.00 in 105 W/m2
14:39 43.9 °F 36.3 °F 30.10 in North 1.6 mph 9 mph 72% 0.00 in 98 W/m2
14:44 44 °F 36.4 °F 30.09 in North 0.6 mph 5 mph 72% 0.00 in 107 W/m2
14:49 44.1 °F 36.5 °F 30.10 in NNW 1.2 mph 7 mph 72% 0.00 in 105 W/m2
14:54 43.9 °F 36.3 °F 30.10 in North 0.4 mph 6 mph 72% 0.00 in 97 W/m2
14:59 43.9 °F 36.3 °F 30.10 in North 3.8 mph 7 mph 72% 0.00 in 95 W/m2
15:04 43.8 °F 36.2 °F 30.10 in North 1 mph 6 mph 72% 0.00 in 81 W/m2
15:09 43.5 °F 36.3 °F 30.10 in North 2.2 mph 7 mph 73% 0.00 in 63 W/m2
15:14 43.3 °F 36.1 °F 30.10 in North 1.2 mph 6 mph 73% 0.00 in 58 W/m2
15:19 43.4 °F 36.2 °F 30.10 in North 0.8 mph 4 mph 73% 0.00 in 47 W/m2
15:24 43.3 °F 36.4 °F 30.10 in North 3 mph 8 mph 73.8% 0.00 in 44 W/m2
15:29 43.1 °F 36.2 °F 30.10 in NNW 0.2 mph 7 mph 74% 0.00 in 39 W/m2
15:34 43 °F 36.1 °F 30.10 in NNW 0.2 mph 4 mph 74% 0.00 in 30 W/m2
15:39 42.8 °F 36.1 °F 30.10 in NNW 0.2 mph 4 mph 74.2% 0.00 in 25 W/m2
15:44 42.6 °F 36.1 °F 30.10 in Calm   2 mph 75% 0.00 in 21 W/m2
15:49 42.4 °F 36 °F 30.10 in Calm   2 mph 75% 0.00 in 18 W/m2
15:54 42.4 °F 36 °F 30.10 in Calm     75% 0.00 in 14 W/m2
15:59 42.4 °F 36 °F 30.10 in Calm     75% 0.00 in 11 W/m2
16:04 42.2 °F 35.8 °F 30.10 in Calm     75.2% 0.00 in 9 W/m2
16:08 41.9 °F 35.7 °F 30.10 in Calm     75.8% 0.00 in 5 W/m2
16:14 41.6 °F 35.5 °F 30.10 in Calm     76% 0.00 in 5 W/m2
16:19 41.5 °F 35.5 °F 30.10 in Calm     76.2% 0.00 in 0 W/m2
16:24 41.3 °F 35.6 °F 30.11 in Calm     77% 0.00 in 0 W/m2
16:29 40.7 °F 35.1 °F 30.11 in Calm     77.2% 0.00 in 0 W/m2
16:34 40.3 °F 34.7 °F 30.10 in Calm     77.6% 0.00 in 0 W/m2
16:39 39.8 °F 34.4 °F 30.10 in Calm     78% 0.00 in 0 W/m2
16:44 39.4 °F 34.3 °F 30.10 in Calm     79% 0.00 in 0 W/m2
16:49 39.2 °F 34.2 °F 30.10 in Calm     79% 0.00 in 0 W/m2
16:54 39 °F 34.2 °F 30.10 in Calm     79.6% 0.00 in 0 W/m2
16:59 38.8 °F 34.1 °F 30.10 in Calm     80% 0.00 in 0 W/m2
17:04 38.4 °F 33.7 °F 30.10 in Calm     80% 0.00 in 0 W/m2
17:09 38.1 °F 33.6 °F 30.10 in Calm     81% 0.00 in 0 W/m2
17:14 37.9 °F 33.4 °F 30.10 in Calm     81% 0.00 in 0 W/m2
17:19 37.8 °F 33.4 °F 30.10 in Calm     81.4% 0.00 in 0 W/m2
17:24 37.5 °F 33.3 °F 30.10 in Calm     81.8% 0.00 in 0 W/m2
17:29 37.2 °F 33.1 °F 30.10 in Calm     82% 0.00 in 0 W/m2
17:34 37.2 °F 33.3 °F 30.10 in Calm     82.8% 0.00 in 0 W/m2
17:39 37 °F 33.3 °F 30.10 in Calm     83% 0.00 in 0 W/m2
17:44 37 °F 33.3 °F 30.10 in Calm     83% 0.00 in 0 W/m2
17:49 36.9 °F 33.3 °F 30.09 in Calm     83.6% 0.00 in 0 W/m2
17:54 36.8 °F 33.3 °F 30.09 in Calm     84% 0.00 in 0 W/m2
17:59 36.7 °F 33.3 °F 30.10 in Calm     84% 0.00 in 0 W/m2
18:04 36.5 °F 33.1 °F 30.10 in Calm     84.2% 0.00 in 0 W/m2
18:09 36.5 °F 33.3 °F 30.10 in Calm     85% 0.00 in 0 W/m2
18:14 36.2 °F 33 °F 30.10 in Calm     85% 0.00 in 0 W/m2
18:19 36.1 °F 32.9 °F 30.09 in Calm     85% 0.00 in 0 W/m2
18:24 36.1 °F 32.9 °F 30.09 in Calm     85% 0.00 in 0 W/m2
18:29 36.1 °F 32.8 °F 30.09 in Calm     85% 0.00 in 0 W/m2
18:34 35.9 °F 32.6 °F 30.09 in Calm     85% 0.00 in 0 W/m2
18:39 35.5 °F 32.4 °F 30.09 in Calm     85.4% 0.00 in 0 W/m2
18:44 35.2 °F 32.4 °F 30.09 in Calm     86% 0.00 in 0 W/m2
18:49 35.2 °F 32.4 °F 30.08 in Calm     86% 0.00 in 0 W/m2
18:54 35.2 °F 32.4 °F 30.08 in Calm     86% 0.00 in 0 W/m2
18:59 35.1 °F 32.2 °F 30.08 in Calm     86% 0.00 in 0 W/m2
19:04 35 °F 32.1 °F 30.08 in Calm     86% 0.00 in 0 W/m2
19:09 34.8 °F 31.9 °F 30.08 in Calm     86% 0.00 in 0 W/m2
19:14 34.5 °F 31.8 °F 30.07 in Calm     86.6% 0.00 in 0 W/m2
19:19 34.4 °F 31.9 °F 30.07 in Calm     87% 0.00 in 0 W/m2
19:24 34.4 °F 31.9 °F 30.07 in Calm     87% 0.00 in 0 W/m2
19:29 34.5 °F 32 °F 30.07 in Calm     87% 0.00 in 0 W/m2
19:34 34.7 °F 32.2 °F 30.07 in Calm     87% 0.00 in 0 W/m2
19:39 34.6 °F 32.1 °F 30.07 in Calm     87% 0.00 in 0 W/m2
19:44 34.5 °F 32 °F 30.06 in Calm     87% 0.00 in 0 W/m2
19:49 34.5 °F 32 °F 30.06 in Calm     87% 0.00 in 0 W/m2
19:54 34.5 °F 32.2 °F 30.06 in Calm     87.8% 0.00 in 0 W/m2
19:59 34.8 °F 32.5 °F 30.06 in Calm     88% 0.00 in 0 W/m2
20:04 35 °F 32.6 °F 30.06 in Calm     88% 0.00 in 0 W/m2
20:09 35.2 °F 32.8 °F 30.06 in Calm     88% 0.00 in 0 W/m2
20:14 35.2 °F 32.9 °F 30.06 in Calm     88% 0.00 in 0 W/m2
20:19 35.2 °F 32.9 °F 30.06 in Calm     88% 0.00 in 0 W/m2
20:24 35.2 °F 32.9 °F 30.05 in Calm     88% 0.00 in 0 W/m2
20:29 35.2 °F 32.9 °F 30.05 in Calm     88% 0.00 in 0 W/m2
20:34 35.2 °F 32.9 °F 30.05 in Calm     88% 0.00 in 0 W/m2
20:39 35.2 °F 32.8 °F 30.05 in Calm     88% 0.00 in 0 W/m2
20:44 35.1 °F 32.7 °F 30.05 in Calm     88% 0.00 in 0 W/m2
20:49 35.1 °F 32.7 °F 30.05 in Calm     88% 0.00 in 0 W/m2
20:54 35.2 °F 32.9 °F 30.04 in Calm     88% 0.00 in 0 W/m2
20:59 35.2 °F 32.9 °F 30.04 in Calm     88% 0.00 in 0 W/m2
21:04 35.2 °F 32.9 °F 30.04 in Calm     88% 0.00 in 0 W/m2
21:09 35.2 °F 32.9 °F 30.04 in Calm     88% 0.00 in 0 W/m2
21:14 35.2 °F 32.9 °F 30.03 in Calm     88% 0.00 in 0 W/m2
21:19 35.2 °F 32.9 °F 30.03 in Calm     88% 0.00 in 0 W/m2
21:24 35.2 °F 32.9 °F 30.03 in Calm     88% 0.00 in 0 W/m2
21:29 35.1 °F 32.7 °F 30.03 in Calm     88% 0.00 in 0 W/m2
21:34 35.1 °F 32.7 °F 30.03 in Calm     88% 0.00 in 0 W/m2
21:39 35.1 °F 32.7 °F 30.03 in Calm     88% 0.00 in 0 W/m2
21:44 35.1 °F 32.7 °F 30.02 in Calm     88% 0.00 in 0 W/m2
21:49 35.1 °F 32.7 °F 30.02 in Calm     88% 0.00 in 0 W/m2
21:54 35.2 °F 32.9 °F 30.02 in Calm     88% 0.00 in 0 W/m2
21:59 35.2 °F 32.9 °F 30.01 in Calm     88% 0.00 in 0 W/m2
22:04 35.2 °F 32.9 °F 30.01 in Calm     88% 0.00 in 0 W/m2
22:09 35.3 °F 33 °F 30.01 in Calm     88% 0.00 in 0 W/m2
22:14 35.7 °F 33.7 °F 30.01 in NNW 2.5 mph 5 mph 88.8% 0.00 in 0 W/m2
22:19 36.5 °F 34.4 °F 30.00 in NNW 2 mph 5 mph 88.8% 0.00 in 0 W/m2
22:24 36.9 °F 34.5 °F 30.00 in NNW 1.5 mph 4 mph 88% 0.00 in 0 W/m2
22:29 37 °F 34.7 °F 30.00 in NNW 1.4 mph 4 mph 88% 0.00 in 0 W/m2
22:34 37.2 °F 34.6 °F 29.99 in NNW 0.6 mph 3 mph 87.2% 0.00 in 0 W/m2
22:39 37.2 °F 34.5 °F 29.99 in Calm     87% 0.00 in 0 W/m2
22:44 37.2 °F 34.4 °F 29.99 in Calm     86.6% 0.00 in 0 W/m2
22:49 37 °F 34.2 °F 29.98 in Calm     86% 0.00 in 0 W/m2
22:53 37 °F 34.2 °F 29.98 in Calm     86% 0.00 in 0 W/m2
22:59 37.1 °F 34.2 °F 29.98 in NNW 1.2 mph 4 mph 86% 0.00 in 0 W/m2
23:04 37.4 °F 34.7 °F 29.98 in NNW 3.3 mph 7 mph 86.6% 0.00 in 0 W/m2
23:09 37.8 °F 34.9 °F 29.97 in NNW 4 mph 6 mph 86% 0.00 in 0 W/m2
23:14 37.9 °F 35.1 °F 29.97 in NNW 3.2 mph 6 mph 86% 0.00 in 0 W/m2
23:19 37.9 °F 35 °F 29.97 in NNW 2.9 mph 6 mph 86% 0.00 in 0 W/m2
23:24 37.8 °F 34.9 °F 29.96 in NNW 2 mph 5 mph 86% 0.00 in 0 W/m2
23:29 37.6 °F 34.7 °F 29.96 in NNW 1.3 mph 3 mph 86% 0.00 in 0 W/m2
23:34 37.6 °F 34.7 °F 29.96 in Calm   2 mph 86% 0.00 in 0 W/m2
23:39 37.6 °F 34.7 °F 29.95 in NNW 0.2 mph 3 mph 86% 0.00 in 0 W/m2
23:44 37.7 °F 34.8 °F 29.95 in NNW 0.8 mph 3 mph 86% 0.00 in 0 W/m2
23:49 37.8 °F 34.9 °F 29.95 in NNW 2.1 mph 5 mph 86% 0.00 in 0 W/m2
23:54 37.9 °F 35.1 °F 29.94 in NNW 2.8 mph 6 mph 86% 0.00 in 0 W/m2
23:59 37.9 °F 35.2 °F 29.93 in NNW 2 mph 5 mph 86.8% 0.00 in 0 W/m2
Bath Spa Weather
Compliments of Weather Underground - 2 mb